Chicago, IL (60625)

12:36 AM CST on December 27, 2014 (GMT -0600)
North Park University | Change Station
CLOSE
Current Station
Personal Weather Station
Location: Chicago, IL
Elevation: 617 ft
Nearby Weather Stations

Elev 617 ft 41.97 °N, 87.71 °W | Updated 6 minutes ago

Overcast
Overcast
47.7 °F
Feels Like 46 °F
N
4.0
Wind Variable Wind from South
Gusts 10.0 mph

Today
High -- | Low -- °F
--% Chance of Precip.
Yesterday
High -- | Low -- °F
Precip. -- in
7:17 AM 4:26 PM
Waxing Crescent, 33% visible
Pressure 30.02 in
Visibility 10.0 miles
Clouds Overcast 6000 ft
Windchill 46 °F
Dew Point 44 °F
Humidity 86%
Rainfall 0.00 in
Snow Depth Not available.
UV 0.0 out of 12
Pollen .10 out of 12
Air Quality Not available.
Flu Activity Not available.
METAR KORD 270551Z 18005KT 10SM OVC060 07/05 A3001 RMK AO2 SLP165 T00670050 10089 20061 401000022 56005

More Conditions Fewer Conditions

Pressure 30.02 in
Visibility 10.0 miles
Clouds Overcast 6000 ft
Windchill 46 °F
Dew Point 44 °F
Humidity 86%
Rainfall 0.00 in
Snow Depth Not available.
UV 0.0 out of 12
Pollen .10 out of 12
Air Quality Not available.
Flu Activity Not available.
METAR KORD 270551Z 18005KT 10SM OVC060 07/05 A3001 RMK AO2 SLP165 T00670050 10089 20061 401000022 56005

More Conditions Fewer Conditions

10-Day Weather Forecast

Almanac

Astronomy

Dec. 27, 2014 Rise Set
Actual Time
Civil Twilight
Nautical Twilight
Astronomical Twilight
Moon
Length of Visible Light
Length of Day
Tomorrow will be .
, % of the Moon is Illuminated

Today's Extremes

State Highs State Lows

Community

WunderPhotos

Upload Photos

1,780,859 photos uploaded!

WunderBlogs® & News

Nearby

Air Quality

  Air Quality AQ Index Pollutant
Not available.

Snow Depth

Station Depth Elevation

Earthquake Activity

City Distance Mag. Time & Date
Minimum magnitude displayed is 2.5.

Coastal Water Temperatures

Place Temperature

Nearby Weather Stations